sensor_id;sensor_type;location;lat;lon;timestamp;temperature;humidity
27940;DHT22;15275;51.716;14.324;2022-09-29T00:00:13;10.70;80.90
27940;DHT22;15275;51.716;14.324;2022-09-29T00:02:39;10.70;80.80
27940;DHT22;15275;51.716;14.324;2022-09-29T00:05:05;10.60;80.70
27940;DHT22;15275;51.716;14.324;2022-09-29T00:07:32;10.60;80.60
27940;DHT22;15275;51.716;14.324;2022-09-29T00:09:58;10.60;80.60
27940;DHT22;15275;51.716;14.324;2022-09-29T00:12:24;10.60;80.60
27940;DHT22;15275;51.716;14.324;2022-09-29T00:14:50;10.50;80.70
27940;DHT22;15275;51.716;14.324;2022-09-29T00:17:16;10.50;80.80
27940;DHT22;15275;51.716;14.324;2022-09-29T00:19:42;10.50;80.80
27940;DHT22;15275;51.716;14.324;2022-09-29T00:22:08;10.50;80.90
27940;DHT22;15275;51.716;14.324;2022-09-29T00:24:34;10.50;80.90
27940;DHT22;15275;51.716;14.324;2022-09-29T00:27:00;10.50;80.80
27940;DHT22;15275;51.716;14.324;2022-09-29T00:29:27;10.50;80.80
27940;DHT22;15275;51.716;14.324;2022-09-29T00:31:53;10.40;80.80
27940;DHT22;15275;51.716;14.324;2022-09-29T00:34:19;10.40;80.70
27940;DHT22;15275;51.716;14.324;2022-09-29T00:36:45;10.40;80.70
27940;DHT22;15275;51.716;14.324;2022-09-29T00:39:11;10.40;80.60
27940;DHT22;15275;51.716;14.324;2022-09-29T00:41:38;10.40;80.60
27940;DHT22;15275;51.716;14.324;2022-09-29T00:54:46;10.30;80.40
27940;DHT22;15275;51.716;14.324;2022-09-29T00:57:16;10.20;80.30
27940;DHT22;15275;51.716;14.324;2022-09-29T00:59:46;10.20;80.30
27940;DHT22;15275;51.716;14.324;2022-09-29T01:02:20;10.20;80.30
27940;DHT22;15275;51.716;14.324;2022-09-29T01:04:49;10.20;80.40
27940;DHT22;15275;51.716;14.324;2022-09-29T01:07:18;10.10;80.50
27940;DHT22;15275;51.716;14.324;2022-09-29T01:09:47;10.10;80.50
27940;DHT22;15275;51.716;14.324;2022-09-29T01:12:15;10.10;80.40
27940;DHT22;15275;51.716;14.324;2022-09-29T01:14:42;10.10;80.30
27940;DHT22;15275;51.716;14.324;2022-09-29T01:17:08;10.10;80.30
27940;DHT22;15275;51.716;14.324;2022-09-29T01:37:43;9.90;80.50
27940;DHT22;15275;51.716;14.324;2022-09-29T01:40:26;9.80;80.50
27940;DHT22;15275;51.716;14.324;2022-09-29T01:43:03;9.80;80.60
27940;DHT22;15275;51.716;14.324;2022-09-29T01:45:36;9.80;80.70
27940;DHT22;15275;51.716;14.324;2022-09-29T01:48:23;9.80;80.70
27940;DHT22;15275;51.716;14.324;2022-09-29T01:50:57;9.80;80.60
27940;DHT22;15275;51.716;14.324;2022-09-29T01:53:29;9.80;80.60
27940;DHT22;15275;51.716;14.324;2022-09-29T01:56:04;9.70;80.60
27940;DHT22;15275;51.716;14.324;2022-09-29T01:58:38;9.70;80.60
27940;DHT22;15275;51.716;14.324;2022-09-29T02:01:10;9.70;80.60
27940;DHT22;15275;51.716;14.324;2022-09-29T02:03:45;9.70;80.60
27940;DHT22;15275;51.716;14.324;2022-09-29T02:06:21;9.70;80.70
27940;DHT22;15275;51.716;14.324;2022-09-29T02:08:54;9.60;80.80
27940;DHT22;15275;51.716;14.324;2022-09-29T02:11:22;9.60;80.80
27940;DHT22;15275;51.716;14.324;2022-09-29T02:17:02;9.60;81.10
27940;DHT22;15275;51.716;14.324;2022-09-29T02:19:34;9.60;81.30
27940;DHT22;15275;51.716;14.324;2022-09-29T02:22:02;9.70;81.30
27940;DHT22;15275;51.716;14.324;2022-09-29T02:24:28;9.70;81.40
27940;DHT22;15275;51.716;14.324;2022-09-29T02:26:53;9.70;81.50
27940;DHT22;15275;51.716;14.324;2022-09-29T02:29:20;9.70;81.60
27940;DHT22;15275;51.716;14.324;2022-09-29T02:31:46;9.80;81.70
27940;DHT22;15275;51.716;14.324;2022-09-29T02:34:15;9.80;81.80
27940;DHT22;15275;51.716;14.324;2022-09-29T02:37:20;9.80;81.90
27940;DHT22;15275;51.716;14.324;2022-09-29T02:43:18;9.90;81.80
27940;DHT22;15275;51.716;14.324;2022-09-29T02:46:13;9.90;81.90
27940;DHT22;15275;51.716;14.324;2022-09-29T02:49:12;10.00;81.90
27940;DHT22;15275;51.716;14.324;2022-09-29T02:52:14;10.00;81.90
27940;DHT22;15275;51.716;14.324;2022-09-29T02:55:16;10.10;82.00
27940;DHT22;15275;51.716;14.324;2022-09-29T03:00:34;10.20;82.10
27940;DHT22;15275;51.716;14.324;2022-09-29T03:03:00;10.20;82.10
27940;DHT22;15275;51.716;14.324;2022-09-29T03:05:26;10.20;82.30
27940;DHT22;15275;51.716;14.324;2022-09-29T03:07:52;10.20;82.30
27940;DHT22;15275;51.716;14.324;2022-09-29T03:10:18;10.30;82.40
27940;DHT22;15275;51.716;14.324;2022-09-29T03:12:44;10.30;82.40
27940;DHT22;15275;51.716;14.324;2022-09-29T03:15:11;10.40;82.40
27940;DHT22;15275;51.716;14.324;2022-09-29T03:17:38;10.40;82.30
27940;DHT22;15275;51.716;14.324;2022-09-29T03:20:05;10.40;82.30
27940;DHT22;15275;51.716;14.324;2022-09-29T03:22:31;10.50;82.30
27940;DHT22;15275;51.716;14.324;2022-09-29T03:24:57;10.50;82.30
27940;DHT22;15275;51.716;14.324;2022-09-29T03:27:23;10.60;82.30
27940;DHT22;15275;51.716;14.324;2022-09-29T03:29:49;10.60;82.20
27940;DHT22;15275;51.716;14.324;2022-09-29T03:32:15;10.60;82.20
27940;DHT22;15275;51.716;14.324;2022-09-29T03:34:41;10.60;82.10
27940;DHT22;15275;51.716;14.324;2022-09-29T03:37:07;10.70;82.00
27940;DHT22;15275;51.716;14.324;2022-09-29T03:39:33;10.70;82.00
27940;DHT22;15275;51.716;14.324;2022-09-29T03:41:59;10.70;82.00
27940;DHT22;15275;51.716;14.324;2022-09-29T03:44:25;10.70;81.90
27940;DHT22;15275;51.716;14.324;2022-09-29T03:46:51;10.80;81.90
27940;DHT22;15275;51.716;14.324;2022-09-29T03:49:17;10.80;82.00
27940;DHT22;15275;51.716;14.324;2022-09-29T03:51:43;10.80;82.00
27940;DHT22;15275;51.716;14.324;2022-09-29T03:54:09;10.80;82.00
27940;DHT22;15275;51.716;14.324;2022-09-29T03:56:36;10.80;82.10
27940;DHT22;15275;51.716;14.324;2022-09-29T03:59:03;10.90;82.10
27940;DHT22;15275;51.716;14.324;2022-09-29T04:01:30;10.90;82.20
27940;DHT22;15275;51.716;14.324;2022-09-29T04:03:57;10.90;82.20
27940;DHT22;15275;51.716;14.324;2022-09-29T04:06:23;11.00;82.20
27940;DHT22;15275;51.716;14.324;2022-09-29T04:08:49;11.00;82.20
27940;DHT22;15275;51.716;14.324;2022-09-29T04:11:15;11.00;82.20
27940;DHT22;15275;51.716;14.324;2022-09-29T04:13:40;11.10;82.20
27940;DHT22;15275;51.716;14.324;2022-09-29T04:16:07;11.10;82.10
27940;DHT22;15275;51.716;14.324;2022-09-29T04:18:33;11.10;82.10
27940;DHT22;15275;51.716;14.324;2022-09-29T04:21:03;11.10;82.10
27940;DHT22;15275;51.716;14.324;2022-09-29T04:23:30;11.20;82.10
27940;DHT22;15275;51.716;14.324;2022-09-29T04:25:56;11.20;82.00
27940;DHT22;15275;51.716;14.324;2022-09-29T04:28:23;11.20;82.00
27940;DHT22;15275;51.716;14.324;2022-09-29T04:30:50;11.20;82.00
27940;DHT22;15275;51.716;14.324;2022-09-29T04:33:16;11.20;81.90
27940;DHT22;15275;51.716;14.324;2022-09-29T04:35:42;11.30;81.90
27940;DHT22;15275;51.716;14.324;2022-09-29T04:38:08;11.30;82.00
27940;DHT22;15275;51.716;14.324;2022-09-29T04:40:35;11.30;81.90
27940;DHT22;15275;51.716;14.324;2022-09-29T04:43:02;11.30;81.90
27940;DHT22;15275;51.716;14.324;2022-09-29T04:45:29;11.30;81.80
27940;DHT22;15275;51.716;14.324;2022-09-29T04:47:55;11.40;81.80
27940;DHT22;15275;51.716;14.324;2022-09-29T04:50:21;11.40;81.80
27940;DHT22;15275;51.716;14.324;2022-09-29T04:52:47;11.40;81.70
27940;DHT22;15275;51.716;14.324;2022-09-29T04:55:13;11.40;81.70
27940;DHT22;15275;51.716;14.324;2022-09-29T04:57:41;11.40;81.70
27940;DHT22;15275;51.716;14.324;2022-09-29T05:00:11;11.50;81.70
27940;DHT22;15275;51.716;14.324;2022-09-29T05:02:37;11.50;81.60
27940;DHT22;15275;51.716;14.324;2022-09-29T05:05:04;11.50;81.50
27940;DHT22;15275;51.716;14.324;2022-09-29T05:07:33;11.50;81.50
27940;DHT22;15275;51.716;14.324;2022-09-29T05:09:59;11.50;81.50
27940;DHT22;15275;51.716;14.324;2022-09-29T05:12:25;11.50;81.50
27940;DHT22;15275;51.716;14.324;2022-09-29T05:14:51;11.50;81.50
27940;DHT22;15275;51.716;14.324;2022-09-29T05:17:18;11.50;81.50
27940;DHT22;15275;51.716;14.324;2022-09-29T05:19:44;11.50;81.50
27940;DHT22;15275;51.716;14.324;2022-09-29T05:22:09;11.50;81.50
27940;DHT22;15275;51.716;14.324;2022-09-29T05:24:35;11.50;81.40
27940;DHT22;15275;51.716;14.324;2022-09-29T05:27:01;11.50;81.40
27940;DHT22;15275;51.716;14.324;2022-09-29T05:29:27;11.50;81.40
27940;DHT22;15275;51.716;14.324;2022-09-29T05:32:17;11.60;81.40
27940;DHT22;15275;51.716;14.324;2022-09-29T05:35:08;11.60;81.40
27940;DHT22;15275;51.716;14.324;2022-09-29T05:38:00;11.60;81.40
27940;DHT22;15275;51.716;14.324;2022-09-29T06:03:00;11.90;81.40
27940;DHT22;15275;51.716;14.324;2022-09-29T06:05:27;12.10;81.20
27940;DHT22;15275;51.716;14.324;2022-09-29T06:07:54;12.10;80.90
27940;DHT22;15275;51.716;14.324;2022-09-29T06:10:28;12.10;80.70
27940;DHT22;15275;51.716;14.324;2022-09-29T06:12:54;12.10;80.60
27940;DHT22;15275;51.716;14.324;2022-09-29T06:15:21;12.10;80.60
27940;DHT22;15275;51.716;14.324;2022-09-29T06:17:57;12.20;80.60
27940;DHT22;15275;51.716;14.324;2022-09-29T06:20:24;12.20;80.40
27940;DHT22;15275;51.716;14.324;2022-09-29T06:22:56;12.20;80.40
27940;DHT22;15275;51.716;14.324;2022-09-29T06:25:22;12.20;80.40
27940;DHT22;15275;51.716;14.324;2022-09-29T06:27:48;12.20;80.50
27940;DHT22;15275;51.716;14.324;2022-09-29T06:30:14;12.20;80.70
27940;DHT22;15275;51.716;14.324;2022-09-29T06:32:40;12.20;80.90
27940;DHT22;15275;51.716;14.324;2022-09-29T06:35:06;12.30;80.90
27940;DHT22;15275;51.716;14.324;2022-09-29T06:37:53;12.30;81.00
27940;DHT22;15275;51.716;14.324;2022-09-29T06:40:20;12.30;81.10
27940;DHT22;15275;51.716;14.324;2022-09-29T06:42:49;12.40;81.10
27940;DHT22;15275;51.716;14.324;2022-09-29T06:45:15;12.40;81.00
27940;DHT22;15275;51.716;14.324;2022-09-29T06:47:41;12.50;80.90
27940;DHT22;15275;51.716;14.324;2022-09-29T06:50:07;12.50;81.00
27940;DHT22;15275;51.716;14.324;2022-09-29T06:52:34;12.60;80.80
27940;DHT22;15275;51.716;14.324;2022-09-29T06:55:00;12.60;80.80
27940;DHT22;15275;51.716;14.324;2022-09-29T06:57:26;12.70;80.60
27940;DHT22;15275;51.716;14.324;2022-09-29T06:59:52;12.70;80.60
27940;DHT22;15275;51.716;14.324;2022-09-29T07:02:17;12.80;80.50
27940;DHT22;15275;51.716;14.324;2022-09-29T07:04:43;12.80;80.40
27940;DHT22;15275;51.716;14.324;2022-09-29T07:07:09;12.90;80.20
27940;DHT22;15275;51.716;14.324;2022-09-29T07:09:35;12.90;80.20
27940;DHT22;15275;51.716;14.324;2022-09-29T07:12:01;13.00;80.10
27940;DHT22;15275;51.716;14.324;2022-09-29T07:14:26;13.00;79.90
27940;DHT22;15275;51.716;14.324;2022-09-29T07:16:52;13.10;79.90
27940;DHT22;15275;51.716;14.324;2022-09-29T07:19:18;13.10;80.00
27940;DHT22;15275;51.716;14.324;2022-09-29T07:21:46;13.10;79.80
27940;DHT22;15275;51.716;14.324;2022-09-29T07:24:12;13.20;79.80
27940;DHT22;15275;51.716;14.324;2022-09-29T07:26:38;13.20;79.60
27940;DHT22;15275;51.716;14.324;2022-09-29T07:29:04;13.30;79.50
27940;DHT22;15275;51.716;14.324;2022-09-29T07:31:30;13.30;79.30
27940;DHT22;15275;51.716;14.324;2022-09-29T07:33:56;13.40;79.20
27940;DHT22;15275;51.716;14.324;2022-09-29T07:36:22;13.40;79.20
27940;DHT22;15275;51.716;14.324;2022-09-29T07:38:49;13.40;79.30
27940;DHT22;15275;51.716;14.324;2022-09-29T07:41:17;13.40;79.30
27940;DHT22;15275;51.716;14.324;2022-09-29T07:43:44;13.40;79.50
27940;DHT22;15275;51.716;14.324;2022-09-29T07:46:11;13.50;79.30
27940;DHT22;15275;51.716;14.324;2022-09-29T07:48:37;13.50;79.10
27940;DHT22;15275;51.716;14.324;2022-09-29T07:53:32;13.50;78.80
27940;DHT22;15275;51.716;14.324;2022-09-29T07:56:03;13.60;78.70
27940;DHT22;15275;51.716;14.324;2022-09-29T07:58:31;13.60;78.80
27940;DHT22;15275;51.716;14.324;2022-09-29T08:00:59;13.60;78.90
27940;DHT22;15275;51.716;14.324;2022-09-29T08:03:26;13.60;78.80
27940;DHT22;15275;51.716;14.324;2022-09-29T08:05:55;13.60;78.90
27940;DHT22;15275;51.716;14.324;2022-09-29T08:08:22;13.70;78.80
27940;DHT22;15275;51.716;14.324;2022-09-29T08:10:48;13.70;78.80
27940;DHT22;15275;51.716;14.324;2022-09-29T08:13:14;13.70;78.90
27940;DHT22;15275;51.716;14.324;2022-09-29T08:15:40;13.70;79.00
27940;DHT22;15275;51.716;14.324;2022-09-29T08:18:06;13.80;79.00
27940;DHT22;15275;51.716;14.324;2022-09-29T08:20:34;13.80;79.00
27940;DHT22;15275;51.716;14.324;2022-09-29T08:23:01;13.90;79.10
27940;DHT22;15275;51.716;14.324;2022-09-29T08:25:27;13.90;79.10
27940;DHT22;15275;51.716;14.324;2022-09-29T08:27:53;14.00;79.10
27940;DHT22;15275;51.716;14.324;2022-09-29T08:30:19;14.00;79.10
27940;DHT22;15275;51.716;14.324;2022-09-29T08:32:55;14.10;79.30
27940;DHT22;15275;51.716;14.324;2022-09-29T08:35:21;14.20;78.80
27940;DHT22;15275;51.716;14.324;2022-09-29T08:37:47;14.20;79.00
27940;DHT22;15275;51.716;14.324;2022-09-29T08:40:13;14.30;78.90
27940;DHT22;15275;51.716;14.324;2022-09-29T08:43:13;14.40;78.80
27940;DHT22;15275;51.716;14.324;2022-09-29T08:45:52;14.40;78.20
27940;DHT22;15275;51.716;14.324;2022-09-29T08:48:28;14.50;79.00
27940;DHT22;15275;51.716;14.324;2022-09-29T08:50:57;14.60;78.90
27940;DHT22;15275;51.716;14.324;2022-09-29T08:53:27;14.70;79.10
27940;DHT22;15275;51.716;14.324;2022-09-29T08:56:04;14.80;79.20
27940;DHT22;15275;51.716;14.324;2022-09-29T08:58:37;14.90;79.00
27940;DHT22;15275;51.716;14.324;2022-09-29T09:01:45;15.00;78.80
27940;DHT22;15275;51.716;14.324;2022-09-29T09:04:33;15.20;77.70
27940;DHT22;15275;51.716;14.324;2022-09-29T09:13:18;15.60;77.10
27940;DHT22;15275;51.716;14.324;2022-09-29T09:19:23;15.70;77.20
27940;DHT22;15275;51.716;14.324;2022-09-29T09:31:14;16.20;75.80
27940;DHT22;15275;51.716;14.324;2022-09-29T09:34:00;16.30;76.20
27940;DHT22;15275;51.716;14.324;2022-09-29T09:36:40;16.40;75.40
27940;DHT22;15275;51.716;14.324;2022-09-29T09:39:20;16.50;76.10
27940;DHT22;15275;51.716;14.324;2022-09-29T09:41:55;16.60;76.40
27940;DHT22;15275;51.716;14.324;2022-09-29T09:44:34;16.80;76.50
27940;DHT22;15275;51.716;14.324;2022-09-29T09:47:22;16.90;75.80
27940;DHT22;15275;51.716;14.324;2022-09-29T09:50:15;17.00;74.30
27940;DHT22;15275;51.716;14.324;2022-09-29T09:52:48;17.20;73.80
27940;DHT22;15275;51.716;14.324;2022-09-29T09:55:22;17.30;74.70
27940;DHT22;15275;51.716;14.324;2022-09-29T10:00:59;17.40;74.60
27940;DHT22;15275;51.716;14.324;2022-09-29T10:03:27;17.50;73.50
27940;DHT22;15275;51.716;14.324;2022-09-29T10:05:54;17.70;74.40
27940;DHT22;15275;51.716;14.324;2022-09-29T10:08:29;17.70;73.80
27940;DHT22;15275;51.716;14.324;2022-09-29T10:11:03;17.80;73.00
27940;DHT22;15275;51.716;14.324;2022-09-29T10:13:36;17.90;72.90
27940;DHT22;15275;51.716;14.324;2022-09-29T10:16:15;18.00;72.50
27940;DHT22;15275;51.716;14.324;2022-09-29T10:18:48;18.10;70.30
27940;DHT22;15275;51.716;14.324;2022-09-29T10:23:54;18.20;71.30
27940;DHT22;15275;51.716;14.324;2022-09-29T10:26:25;18.20;71.90
27940;DHT22;15275;51.716;14.324;2022-09-29T10:32:05;18.30;69.30
27940;DHT22;15275;51.716;14.324;2022-09-29T10:34:41;18.30;70.30
27940;DHT22;15275;51.716;14.324;2022-09-29T10:37:34;18.40;70.20
27940;DHT22;15275;51.716;14.324;2022-09-29T10:42:39;18.40;69.10
27940;DHT22;15275;51.716;14.324;2022-09-29T10:45:14;18.40;69.70
27940;DHT22;15275;51.716;14.324;2022-09-29T10:50:47;18.40;68.10
27940;DHT22;15275;51.716;14.324;2022-09-29T10:55:56;18.50;69.30
27940;DHT22;15275;51.716;14.324;2022-09-29T10:58:44;18.50;68.80
27940;DHT22;15275;51.716;14.324;2022-09-29T11:01:17;18.50;67.30
27940;DHT22;15275;51.716;14.324;2022-09-29T11:06:35;18.30;66.90
27940;DHT22;15275;51.716;14.324;2022-09-29T11:09:26;18.20;67.40
27940;DHT22;15275;51.716;14.324;2022-09-29T11:11:56;18.10;66.70
27940;DHT22;15275;51.716;14.324;2022-09-29T11:14:39;18.10;68.50
27940;DHT22;15275;51.716;14.324;2022-09-29T11:17:22;18.00;67.30
27940;DHT22;15275;51.716;14.324;2022-09-29T11:19:53;18.00;65.90
27940;DHT22;15275;51.716;14.324;2022-09-29T11:28:45;17.90;66.00
27940;DHT22;15275;51.716;14.324;2022-09-29T12:06:55;17.80;67.10
27940;DHT22;15275;51.716;14.324;2022-09-29T12:15:14;17.90;67.30
27940;DHT22;15275;51.716;14.324;2022-09-29T12:18:00;17.90;67.10
27940;DHT22;15275;51.716;14.324;2022-09-29T12:20:32;18.00;68.00
27940;DHT22;15275;51.716;14.324;2022-09-29T12:23:02;18.00;68.20
27940;DHT22;15275;51.716;14.324;2022-09-29T12:25:38;18.10;68.40
27940;DHT22;15275;51.716;14.324;2022-09-29T12:28:13;18.10;67.30
27940;DHT22;15275;51.716;14.324;2022-09-29T12:30:53;18.10;67.00
27940;DHT22;15275;51.716;14.324;2022-09-29T12:33:44;18.10;65.80
27940;DHT22;15275;51.716;14.324;2022-09-29T12:36:25;18.10;66.50
27940;DHT22;15275;51.716;14.324;2022-09-29T12:50:17;18.10;66.70
27940;DHT22;15275;51.716;14.324;2022-09-29T12:53:03;18.20;66.20
27940;DHT22;15275;51.716;14.324;2022-09-29T12:58:18;18.30;65.50
27940;DHT22;15275;51.716;14.324;2022-09-29T13:07:08;18.40;64.80
27940;DHT22;15275;51.716;14.324;2022-09-29T13:15:38;18.60;65.70
27940;DHT22;15275;51.716;14.324;2022-09-29T13:24:11;18.60;64.50
27940;DHT22;15275;51.716;14.324;2022-09-29T13:26:49;18.60;64.40
27940;DHT22;15275;51.716;14.324;2022-09-29T13:33:06;18.70;61.90
27940;DHT22;15275;51.716;14.324;2022-09-29T13:35:43;18.70;64.00
27940;DHT22;15275;51.716;14.324;2022-09-29T13:38:23;18.70;62.30
27940;DHT22;15275;51.716;14.324;2022-09-29T14:02:33;18.80;61.30
27940;DHT22;15275;51.716;14.324;2022-09-29T14:05:03;18.80;61.90
27940;DHT22;15275;51.716;14.324;2022-09-29T14:10:22;18.80;63.20
27940;DHT22;15275;51.716;14.324;2022-09-29T14:12:59;18.80;63.30
27940;DHT22;15275;51.716;14.324;2022-09-29T14:15:33;18.90;62.20
27940;DHT22;15275;51.716;14.324;2022-09-29T14:18:04;18.90;61.70
27940;DHT22;15275;51.716;14.324;2022-09-29T14:20:38;19.00;62.00
27940;DHT22;15275;51.716;14.324;2022-09-29T14:26:49;19.00;61.00
27940;DHT22;15275;51.716;14.324;2022-09-29T14:29:27;19.00;60.40
27940;DHT22;15275;51.716;14.324;2022-09-29T14:31:56;19.10;62.70
27940;DHT22;15275;51.716;14.324;2022-09-29T14:34:26;19.10;63.10
27940;DHT22;15275;51.716;14.324;2022-09-29T14:36:55;19.10;62.50
27940;DHT22;15275;51.716;14.324;2022-09-29T14:39:24;19.20;63.40
27940;DHT22;15275;51.716;14.324;2022-09-29T14:41:50;19.20;62.20
27940;DHT22;15275;51.716;14.324;2022-09-29T14:44:29;19.20;62.20
27940;DHT22;15275;51.716;14.324;2022-09-29T14:47:45;19.20;62.10
27940;DHT22;15275;51.716;14.324;2022-09-29T14:53:45;19.10;61.80
27940;DHT22;15275;51.716;14.324;2022-09-29T14:59:36;19.00;61.90
27940;DHT22;15275;51.716;14.324;2022-09-29T15:04:44;18.90;60.80
27940;DHT22;15275;51.716;14.324;2022-09-29T15:07:16;18.80;61.90
27940;DHT22;15275;51.716;14.324;2022-09-29T15:09:54;18.80;61.60
27940;DHT22;15275;51.716;14.324;2022-09-29T15:12:29;18.70;61.50
27940;DHT22;15275;51.716;14.324;2022-09-29T15:14:57;18.70;60.90
27940;DHT22;15275;51.716;14.324;2022-09-29T15:20:21;18.60;61.40
27940;DHT22;15275;51.716;14.324;2022-09-29T15:25:37;18.50;60.70
27940;DHT22;15275;51.716;14.324;2022-09-29T15:28:13;18.40;61.70
27940;DHT22;15275;51.716;14.324;2022-09-29T15:30:49;18.40;61.50
27940;DHT22;15275;51.716;14.324;2022-09-29T15:33:28;18.30;62.00
27940;DHT22;15275;51.716;14.324;2022-09-29T15:36:02;18.20;61.50
27940;DHT22;15275;51.716;14.324;2022-09-29T15:38:37;18.10;61.70
27940;DHT22;15275;51.716;14.324;2022-09-29T15:41:24;18.10;62.00
27940;DHT22;15275;51.716;14.324;2022-09-29T15:49:12;17.80;61.90
27940;DHT22;15275;51.716;14.324;2022-09-29T15:52:03;17.70;63.20
27940;DHT22;15275;51.716;14.324;2022-09-29T15:54:36;17.50;63.00
27940;DHT22;15275;51.716;14.324;2022-09-29T15:57:05;17.50;63.70
27940;DHT22;15275;51.716;14.324;2022-09-29T15:59:54;17.40;63.90
27940;DHT22;15275;51.716;14.324;2022-09-29T16:05:06;17.30;64.00
27940;DHT22;15275;51.716;14.324;2022-09-29T16:07:46;17.20;64.70
27940;DHT22;15275;51.716;14.324;2022-09-29T16:10:18;17.20;64.70
27940;DHT22;15275;51.716;14.324;2022-09-29T16:17:58;17.10;64.90
27940;DHT22;15275;51.716;14.324;2022-09-29T16:20:29;17.00;65.20
27940;DHT22;15275;51.716;14.324;2022-09-29T16:23:08;17.00;65.30
27940;DHT22;15275;51.716;14.324;2022-09-29T16:25:45;16.90;65.10
27940;DHT22;15275;51.716;14.324;2022-09-29T16:28:24;16.90;65.60
27940;DHT22;15275;51.716;14.324;2022-09-29T16:31:17;16.90;65.50
27940;DHT22;15275;51.716;14.324;2022-09-29T16:33:45;16.80;65.80
27940;DHT22;15275;51.716;14.324;2022-09-29T16:36:18;16.70;66.40
27940;DHT22;15275;51.716;14.324;2022-09-29T16:38:47;16.70;66.10
27940;DHT22;15275;51.716;14.324;2022-09-29T16:46:59;16.40;66.60
27940;DHT22;15275;51.716;14.324;2022-09-29T16:49:42;16.30;66.90
27940;DHT22;15275;51.716;14.324;2022-09-29T16:52:18;16.20;67.10
27940;DHT22;15275;51.716;14.324;2022-09-29T16:54:53;16.20;67.30
27940;DHT22;15275;51.716;14.324;2022-09-29T16:57:27;16.00;67.60
27940;DHT22;15275;51.716;14.324;2022-09-29T17:00:00;16.00;67.70
27940;DHT22;15275;51.716;14.324;2022-09-29T17:02:30;15.80;68.00
27940;DHT22;15275;51.716;14.324;2022-09-29T17:04:56;15.70;68.20
27940;DHT22;15275;51.716;14.324;2022-09-29T17:07:24;15.60;68.30
27940;DHT22;15275;51.716;14.324;2022-09-29T17:09:58;15.50;68.50
27940;DHT22;15275;51.716;14.324;2022-09-29T17:12:29;15.40;68.70
27940;DHT22;15275;51.716;14.324;2022-09-29T17:14:55;15.30;68.90
27940;DHT22;15275;51.716;14.324;2022-09-29T17:17:25;15.10;69.10
27940;DHT22;15275;51.716;14.324;2022-09-29T17:19:53;15.00;69.40
27940;DHT22;15275;51.716;14.324;2022-09-29T17:22:29;14.90;69.60
27940;DHT22;15275;51.716;14.324;2022-09-29T17:24:57;14.80;69.80
27940;DHT22;15275;51.716;14.324;2022-09-29T17:27:24;14.70;69.90
27940;DHT22;15275;51.716;14.324;2022-09-29T17:30:11;14.60;70.20
27940;DHT22;15275;51.716;14.324;2022-09-29T17:32:42;14.50;70.30
27940;DHT22;15275;51.716;14.324;2022-09-29T17:35:28;14.40;70.40
27940;DHT22;15275;51.716;14.324;2022-09-29T17:38:16;14.40;70.70
27940;DHT22;15275;51.716;14.324;2022-09-29T17:43:08;14.20;70.90
27940;DHT22;15275;51.716;14.324;2022-09-29T17:45:33;14.10;71.20
27940;DHT22;15275;51.716;14.324;2022-09-29T17:48:00;14.10;71.30
27940;DHT22;15275;51.716;14.324;2022-09-29T17:50:48;14.00;71.50
27940;DHT22;15275;51.716;14.324;2022-09-29T17:53:15;13.90;71.70
27940;DHT22;15275;51.716;14.324;2022-09-29T17:55:46;13.80;71.60
27940;DHT22;15275;51.716;14.324;2022-09-29T17:58:15;13.80;71.80
27940;DHT22;15275;51.716;14.324;2022-09-29T18:00:44;13.70;72.00
27940;DHT22;15275;51.716;14.324;2022-09-29T18:03:14;13.60;72.20
27940;DHT22;15275;51.716;14.324;2022-09-29T18:05:42;13.60;72.40
27940;DHT22;15275;51.716;14.324;2022-09-29T18:08:16;13.50;72.60
27940;DHT22;15275;51.716;14.324;2022-09-29T18:13:22;13.40;72.90
27940;DHT22;15275;51.716;14.324;2022-09-29T18:15:49;13.40;72.90
27940;DHT22;15275;51.716;14.324;2022-09-29T18:18:18;13.30;73.00
27940;DHT22;15275;51.716;14.324;2022-09-29T18:20:46;13.30;73.20
27940;DHT22;15275;51.716;14.324;2022-09-29T18:23:16;13.20;73.30
27940;DHT22;15275;51.716;14.324;2022-09-29T18:25:44;13.20;73.40
27940;DHT22;15275;51.716;14.324;2022-09-29T18:28:12;13.10;73.30
27940;DHT22;15275;51.716;14.324;2022-09-29T18:30:41;13.10;73.40
27940;DHT22;15275;51.716;14.324;2022-09-29T18:33:12;13.10;73.60
27940;DHT22;15275;51.716;14.324;2022-09-29T18:35:41;13.00;73.70
27940;DHT22;15275;51.716;14.324;2022-09-29T18:38:09;13.00;73.60
27940;DHT22;15275;51.716;14.324;2022-09-29T18:40:36;12.90;73.70
27940;DHT22;15275;51.716;14.324;2022-09-29T18:43:03;12.90;73.80
27940;DHT22;15275;51.716;14.324;2022-09-29T18:45:33;12.80;73.80
27940;DHT22;15275;51.716;14.324;2022-09-29T18:48:03;12.80;73.90
27940;DHT22;15275;51.716;14.324;2022-09-29T18:53:04;12.70;73.90
27940;DHT22;15275;51.716;14.324;2022-09-29T18:55:30;12.60;73.90
27940;DHT22;15275;51.716;14.324;2022-09-29T18:57:58;12.60;73.90
27940;DHT22;15275;51.716;14.324;2022-09-29T19:00:33;12.60;74.00
27940;DHT22;15275;51.716;14.324;2022-09-29T19:03:04;12.50;74.00
27940;DHT22;15275;51.716;14.324;2022-09-29T19:05:32;12.40;74.10
27940;DHT22;15275;51.716;14.324;2022-09-29T19:08:01;12.40;74.20
27940;DHT22;15275;51.716;14.324;2022-09-29T19:10:29;12.30;74.40
27940;DHT22;15275;51.716;14.324;2022-09-29T19:13:03;12.30;74.40
27940;DHT22;15275;51.716;14.324;2022-09-29T19:15:34;12.20;74.50
27940;DHT22;15275;51.716;14.324;2022-09-29T19:18:01;12.20;74.50
27940;DHT22;15275;51.716;14.324;2022-09-29T19:20:27;12.20;74.50
27940;DHT22;15275;51.716;14.324;2022-09-29T19:22:55;12.10;74.50
27940;DHT22;15275;51.716;14.324;2022-09-29T19:25:25;12.10;74.50
27940;DHT22;15275;51.716;14.324;2022-09-29T19:27:55;12.00;74.60
27940;DHT22;15275;51.716;14.324;2022-09-29T19:30:22;12.00;74.70
27940;DHT22;15275;51.716;14.324;2022-09-29T19:32:50;12.00;74.70
27940;DHT22;15275;51.716;14.324;2022-09-29T19:35:20;11.90;74.80
27940;DHT22;15275;51.716;14.324;2022-09-29T19:37:47;11.90;74.90
27940;DHT22;15275;51.716;14.324;2022-09-29T19:40:26;11.90;74.80
27940;DHT22;15275;51.716;14.324;2022-09-29T19:42:54;11.80;74.80
27940;DHT22;15275;51.716;14.324;2022-09-29T19:45:23;11.80;74.80
27940;DHT22;15275;51.716;14.324;2022-09-29T19:47:50;11.70;74.90
27940;DHT22;15275;51.716;14.324;2022-09-29T19:50:19;11.70;75.00
27940;DHT22;15275;51.716;14.324;2022-09-29T19:53:03;11.70;75.00
27940;DHT22;15275;51.716;14.324;2022-09-29T19:55:30;11.60;75.10
27940;DHT22;15275;51.716;14.324;2022-09-29T19:57:56;11.60;75.10